Time;durP1;ratioP1;P1;durP2;ratioP2;P2;SDS_P1;SDS_P2;PMS_P1;PMS_P2;Temp;Humidity;BMP_temperature;BMP_pressure;BME280_temperature;BME280_humidity;BME280_pressure;Samples;Min_cycle;Max_cycle;Signal;HPM_P1;HPM_P2
2021/11/24 00:01:58;;;;;;;8.52;7.50;;;10.40;78.30;;;;;;5010944;28;20034;-92
2021/11/24 00:04:24;;;;;;;8.45;7.45;;;10.40;78.40;;;;;;5010281;28;20022;-77
2021/11/24 00:06:50;;;;;;;7.95;7.15;;;10.40;78.40;;;;;;5011001;28;20026;-88
2021/11/24 00:09:16;;;;;;;8.00;7.22;;;10.40;78.40;;;;;;5010534;28;20469;-90
2021/11/24 00:11:42;;;;;;;7.68;6.97;;;10.40;78.40;;;;;;5009146;28;20045;-83
2021/11/24 00:14:08;;;;;;;7.30;6.60;;;10.30;78.20;;;;;;5009095;28;20037;-77
2021/11/24 00:16:34;;;;;;;7.15;6.45;;;10.30;78.20;;;;;;5007720;28;20030;-76
2021/11/24 00:19:00;;;;;;;7.95;7.07;;;10.30;78.20;;;;;;5008293;28;20123;-76
2021/11/24 00:21:26;;;;;;;7.07;6.38;;;10.30;78.20;;;;;;5008700;28;20504;-76
2021/11/24 00:23:52;;;;;;;6.80;6.18;;;10.30;78.20;;;;;;5011012;28;20030;-76
2021/11/24 00:26:18;;;;;;;9.23;7.70;;;10.30;78.20;;;;;;5028440;28;20037;-88
2021/11/24 00:28:44;;;;;;;7.63;6.93;;;10.30;78.20;;;;;;5027684;28;20037;-87
2021/11/24 00:31:10;;;;;;;6.72;6.07;;;10.30;78.20;;;;;;5011277;28;20042;-75
2021/11/24 00:33:36;;;;;;;7.95;7.20;;;10.30;78.30;;;;;;5028505;28;20123;-83
2021/11/24 00:36:02;;;;;;;8.18;7.22;;;10.30;78.30;;;;;;5029680;28;20034;-90
2021/11/24 00:38:28;;;;;;;7.70;6.95;;;10.30;78.30;;;;;;5029612;28;20041;-88
2021/11/24 00:40:55;;;;;;;6.78;6.18;;;10.30;78.40;;;;;;5028603;28;20033;-90
2021/11/24 00:43:21;;;;;;;7.80;7.00;;;10.30;78.90;;;;;;5028918;28;20469;-85
2021/11/24 00:45:49;;;;;;;7.78;6.97;;;10.30;78.40;;;;;;5036041;28;20025;-92
2021/11/24 00:48:15;;;;;;;7.20;6.47;;;10.20;78.30;;;;;;5033238;28;20054;-93
2021/11/24 00:50:41;;;;;;;8.23;7.43;;;10.30;78.40;;;;;;5039604;28;20087;-91
2021/11/24 00:53:07;;;;;;;6.75;6.15;;;10.30;78.40;;;;;;5033317;28;20026;-93
2021/11/24 00:55:33;;;;;;;6.95;6.35;;;10.30;78.40;;;;;;5031768;28;20041;-88
2021/11/24 00:57:59;;;;;;;6.90;6.28;;;10.20;78.30;;;;;;5029821;28;20163;-76
2021/11/24 01:00:25;;;;;;;7.60;6.82;;;10.20;78.30;;;;;;5011538;28;20034;-92
2021/11/24 01:02:51;;;;;;;7.28;6.57;;;10.20;78.30;;;;;;5009475;28;20382;-81
2021/11/24 01:05:17;;;;;;;6.75;6.00;;;10.20;78.30;;;;;;5009773;28;20029;-75
2021/11/24 01:07:43;;;;;;;7.57;6.88;;;10.20;78.30;;;;;;5009559;28;20453;-74
2021/11/24 01:10:11;;;;;;;6.97;6.28;;;10.20;78.30;;;;;;5009407;28;20188;-89
2021/11/24 01:12:38;;;;;;;6.70;6.10;;;10.20;78.30;;;;;;5008690;28;20081;-94
2021/11/24 01:15:05;;;;;;;7.18;6.45;;;10.20;78.30;;;;;;5008729;28;20509;-86
2021/11/24 01:17:31;;;;;;;7.25;6.65;;;10.20;78.30;;;;;;5009604;28;20124;-89
2021/11/24 01:19:57;;;;;;;6.72;6.13;;;10.20;78.30;;;;;;5009439;28;20030;-88
2021/11/24 01:22:23;;;;;;;7.07;6.38;;;10.20;78.30;;;;;;5008260;28;20038;-84
2021/11/24 01:24:49;;;;;;;6.90;6.28;;;10.10;78.20;;;;;;5009435;28;20068;-78
2021/11/24 01:27:15;;;;;;;7.93;7.22;;;10.20;78.40;;;;;;5010688;28;20060;-84
2021/11/24 01:29:41;;;;;;;7.28;6.57;;;10.20;78.40;;;;;;5023593;28;20561;-89
2021/11/24 01:32:07;;;;;;;8.18;7.35;;;10.10;78.20;;;;;;5028961;28;20038;-91
2021/11/24 01:34:33;;;;;;;7.90;7.03;;;10.10;78.30;;;;;;5019893;28;20044;-80
2021/11/24 01:36:59;;;;;;;7.45;6.75;;;10.10;78.30;;;;;;5007045;28;20029;-89
2021/11/24 01:39:25;;;;;;;7.43;6.72;;;10.10;78.30;;;;;;5006820;28;20037;-75
2021/11/24 01:41:51;;;;;;;7.93;7.13;;;10.10;78.30;;;;;;5007585;28;20029;-92
2021/11/24 01:44:23;;;;;;;7.82;7.10;;;10.10;78.40;;;;;;5008494;28;20080;-90
2021/11/24 01:47:01;;;;;;;7.40;6.70;;;10.10;78.30;;;;;;5008645;28;20123;-86
2021/11/24 01:49:28;;;;;;;7.78;7.07;;;10.10;78.30;;;;;;5008469;28;20033;-85
2021/11/24 01:51:58;;;;;;;7.28;6.57;;;10.10;78.30;;;;;;5006710;28;20042;-77
2021/11/24 01:54:26;;;;;;;6.88;6.28;;;10.10;78.30;;;;;;5014928;28;20491;-83
2021/11/24 01:56:54;;;;;;;7.43;6.72;;;10.10;78.30;;;;;;5028628;28;20034;-87
2021/11/24 01:59:20;;;;;;;6.82;6.22;;;10.10;78.30;;;;;;5016238;28;20038;-76
2021/11/24 02:01:46;;;;;;;7.57;6.78;;;10.10;78.30;;;;;;5007527;28;20547;-73
2021/11/24 02:04:16;;;;;;;8.18;7.45;;;10.10;78.30;;;;;;5008246;28;20040;-78
2021/11/24 02:06:42;;;;;;;7.65;6.85;;;10.00;78.20;;;;;;4990849;28;20026;-84
2021/11/24 02:09:09;;;;;;;7.45;6.75;;;10.00;78.20;;;;;;5006050;28;20456;-78
2021/11/24 02:11:37;;;;;;;8.27;7.47;;;10.00;78.20;;;;;;4990515;28;20342;-76
2021/11/24 02:14:05;;;;;;;7.57;6.88;;;10.00;78.20;;;;;;5007597;28;20117;-73
2021/11/24 02:16:31;;;;;;;8.32;7.53;;;10.00;78.20;;;;;;5007824;28;20080;-76
2021/11/24 02:18:57;;;;;;;7.38;6.63;;;10.00;78.20;;;;;;4989284;28;20321;-74
2021/11/24 02:21:23;;;;;;;7.47;6.57;;;10.00;78.20;;;;;;5006703;28;20444;-81
2021/11/24 02:23:49;;;;;;;7.88;6.65;;;10.00;78.20;;;;;;5007401;28;20033;-75
2021/11/24 02:26:15;;;;;;;6.97;6.30;;;10.00;78.20;;;;;;5006781;28;20519;-73
2021/11/24 02:28:41;;;;;;;8.07;7.28;;;10.00;78.30;;;;;;5006880;28;20109;-74
2021/11/24 02:31:17;;;;;;;7.57;6.72;;;10.00;78.30;;;;;;5016894;28;20041;-84
2021/11/24 02:33:49;;;;;;;7.85;7.15;;;10.00;78.30;;;;;;5011537;28;20478;-80
2021/11/24 02:36:15;;;;;;;7.95;7.15;;;10.00;78.90;;;;;;5027975;28;20037;-85
2021/11/24 02:38:41;;;;;;;7.82;7.00;;;10.00;78.30;;;;;;5027209;28;20068;-79
2021/11/24 02:41:07;;;;;;;8.40;7.60;;;10.00;78.30;;;;;;5028769;28;20430;-85
2021/11/24 02:43:33;;;;;;;8.82;7.93;;;10.00;78.30;;;;;;5028945;28;20029;-77
2021/11/24 02:45:59;;;;;;;8.05;7.25;;;10.00;78.30;;;;;;5028025;28;20064;-85
2021/11/24 02:48:26;;;;;;;7.93;7.22;;;10.00;78.30;;;;;;5029968;28;20132;-90
2021/11/24 02:50:54;;;;;;;8.00;7.20;;;10.00;78.30;;;;;;5032106;28;20096;-74
2021/11/24 02:53:31;;;;;;;8.23;7.20;;;10.00;78.30;;;;;;5031376;28;20447;-74
2021/11/24 02:55:58;;;;;;;8.02;7.22;;;10.00;78.40;;;;;;5031541;28;20066;-89
2021/11/24 02:58:24;;;;;;;8.10;7.40;;;9.90;78.10;;;;;;5031269;28;20032;-88
2021/11/24 03:00:51;;;;;;;8.45;7.25;;;9.90;78.20;;;;;;5031490;28;20057;-88
2021/11/24 03:03:18;;;;;;;8.68;7.78;;;9.90;78.20;;;;;;5031248;28;20025;-88
2021/11/24 03:05:45;;;;;;;7.47;6.78;;;9.90;78.20;;;;;;5031286;28;20033;-74
2021/11/24 03:08:11;;;;;;;7.82;7.13;;;9.90;78.20;;;;;;5034635;28;20034;-91
2021/11/24 03:10:38;;;;;;;8.32;7.45;;;9.90;78.20;;;;;;5035307;28;20045;-88
2021/11/24 03:13:05;;;;;;;8.57;7.78;;;9.90;78.20;;;;;;5035599;28;20036;-82
2021/11/24 03:15:31;;;;;;;7.45;6.75;;;9.90;78.30;;;;;;5035114;28;20152;-91
2021/11/24 03:17:58;;;;;;;8.55;7.70;;;9.90;78.30;;;;;;5036134;28;20021;-76
2021/11/24 03:20:27;;;;;;;9.43;8.43;;;9.90;78.30;;;;;;5034352;28;20029;-80
2021/11/24 03:22:56;;;;;;;9.25;8.35;;;9.90;78.30;;;;;;5035281;28;20568;-87
2021/11/24 03:25:22;;;;;;;9.75;7.50;;;9.90;78.30;;;;;;5035257;28;20029;-88
2021/11/24 03:27:48;;;;;;;8.57;7.22;;;9.90;78.40;;;;;;5035290;28;20029;-81
2021/11/24 03:30:16;;;;;;;9.25;8.35;;;9.90;78.30;;;;;;5034444;28;20075;-91
2021/11/24 03:32:42;;;;;;;8.02;7.22;;;9.90;78.30;;;;;;5035049;28;20030;-74
2021/11/24 03:35:09;;;;;;;8.15;7.05;;;9.90;78.30;;;;;;5035800;28;20040;-76
2021/11/24 03:37:35;;;;;;;8.38;7.45;;;9.90;78.40;;;;;;5033504;28;20030;-89
2021/11/24 03:40:03;;;;;;;8.32;7.45;;;9.90;78.40;;;;;;5035073;28;20037;-77
2021/11/24 03:42:30;;;;;;;8.40;7.60;;;9.90;78.30;;;;;;5034847;28;20029;-81
2021/11/24 03:44:56;;;;;;;9.38;8.20;;;9.90;78.30;;;;;;5033197;28;20026;-78
2021/11/24 03:47:22;;;;;;;9.18;8.20;;;9.90;78.30;;;;;;5034488;28;20485;-81
2021/11/24 03:49:48;;;;;;;9.90;7.70;;;9.90;78.30;;;;;;5034564;28;20032;-83
2021/11/24 03:52:14;;;;;;;8.25;7.45;;;9.90;78.40;;;;;;5034254;28;20040;-85
2021/11/24 03:54:40;;;;;;;9.05;7.65;;;9.90;78.40;;;;;;5034545;28;20029;-78
2021/11/24 03:57:06;;;;;;;7.57;6.78;;;9.90;78.40;;;;;;5033279;28;20041;-84
2021/11/24 03:59:32;;;;;;;8.57;7.78;;;9.80;78.20;;;;;;5017053;28;20023;-82
2021/11/24 04:01:58;;;;;;;8.73;7.25;;;9.80;78.20;;;;;;5034107;28;20492;-76
2021/11/24 04:04:24;;;;;;;8.35;7.55;;;9.80;78.20;;;;;;5034055;28;20116;-81
2021/11/24 04:06:50;;;;;;;8.75;7.85;;;9.80;78.20;;;;;;5034575;28;20036;-83
2021/11/24 04:09:16;;;;;;;10.77;8.07;;;9.80;78.30;;;;;;5032120;28;20457;-83
2021/11/24 04:11:42;;;;;;;8.93;8.02;;;9.80;78.30;;;;;;5033678;28;20037;-78
2021/11/24 04:14:08;;;;;;;8.60;7.70;;;9.80;78.30;;;;;;5033662;28;20112;-75
2021/11/24 04:16:34;;;;;;;8.50;7.60;;;9.80;78.30;;;;;;5033673;28;20459;-73
2021/11/24 04:19:01;;;;;;;9.40;8.45;;;9.80;78.30;;;;;;5033290;28;20029;-73
2021/11/24 04:21:28;;;;;;;8.05;7.25;;;9.80;78.30;;;;;;5032879;28;20025;-79
2021/11/24 04:23:54;;;;;;;8.50;7.60;;;9.80;78.30;;;;;;5033740;28;20508;-88
2021/11/24 04:26:20;;;;;;;8.15;7.30;;;9.80;78.40;;;;;;5032926;28;20065;-83
2021/11/24 04:28:46;;;;;;;9.15;7.88;;;9.80;78.40;;;;;;5032568;28;20117;-78
2021/11/24 04:31:12;;;;;;;7.93;7.13;;;9.70;78.20;;;;;;5033734;28;20133;-89
2021/11/24 04:33:38;;;;;;;9.18;8.10;;;9.80;78.40;;;;;;5033391;28;20036;-85
2021/11/24 04:36:05;;;;;;;9.07;8.15;;;9.80;78.40;;;;;;5033247;28;20029;-77
2021/11/24 04:38:31;;;;;;;8.02;7.18;;;9.80;78.40;;;;;;5032514;28;20028;-76
2021/11/24 04:40:57;;;;;;;8.48;7.55;;;9.80;78.40;;;;;;5032916;28;20032;-83
2021/11/24 04:43:44;;;;;;;8.80;7.50;;;9.70;78.20;;;;;;5033069;28;20033;-87
2021/11/24 04:46:12;;;;;;;9.50;7.75;;;9.80;78.40;;;;;;5032845;28;20095;-85
2021/11/24 04:48:38;;;;;;;9.80;7.85;;;9.70;78.20;;;;;;5031857;28;20489;-82
2021/11/24 04:51:04;;;;;;;9.68;7.82;;;9.70;78.20;;;;;;5032300;28;20045;-80
2021/11/24 04:53:31;;;;;;;8.68;7.50;;;9.70;78.20;;;;;;5032380;28;20030;-92
2021/11/24 04:55:57;;;;;;;8.77;7.88;;;9.70;78.20;;;;;;5017128;28;20117;-78
2021/11/24 04:58:25;;;;;;;8.75;7.35;;;9.80;78.50;;;;;;5033666;28;20021;-74
2021/11/24 05:00:51;;;;;;;8.68;6.85;;;9.70;78.30;;;;;;5028002;28;20034;-85
2021/11/24 05:03:17;;;;;;;8.45;7.38;;;9.70;78.30;;;;;;5019516;28;20021;-86
2021/11/24 05:05:43;;;;;;;8.63;7.75;;;9.70;78.30;;;;;;5022850;28;20307;-81
2021/11/24 05:08:09;;;;;;;9.43;7.82;;;9.70;78.30;;;;;;5031671;28;20025;-83
2021/11/24 05:10:36;;;;;;;8.63;7.72;;;9.70;78.30;;;;;;5031904;28;20067;-85
2021/11/24 05:13:04;;;;;;;8.93;7.43;;;9.70;78.40;;;;;;5034035;28;20064;-88
2021/11/24 05:15:31;;;;;;;8.52;7.63;;;9.70;78.40;;;;;;5033755;28;20121;-88
2021/11/24 05:18:02;;;;;;;9.23;7.75;;;9.70;78.40;;;;;;5033870;28;20124;-89
2021/11/24 05:20:30;;;;;;;9.10;8.20;;;9.70;78.50;;;;;;5033374;28;20029;-88
2021/11/24 05:23:03;;;;;;;9.30;7.75;;;9.70;78.40;;;;;;5033414;28;20044;-93
2021/11/24 05:25:30;;;;;;;7.90;6.80;;;9.70;78.40;;;;;;5033375;28;20025;-85
2021/11/24 05:27:57;;;;;;;8.68;7.53;;;9.70;78.40;;;;;;5031566;28;20036;-77
2021/11/24 05:30:23;;;;;;;8.70;7.80;;;9.70;78.50;;;;;;5031824;28;20074;-74
2021/11/24 05:32:49;;;;;;;9.02;8.07;;;9.70;78.50;;;;;;5032559;28;20052;-90
2021/11/24 05:35:20;;;;;;;8.45;7.47;;;9.60;78.30;;;;;;5030078;28;20029;-84
2021/11/24 05:37:50;;;;;;;9.13;7.18;;;9.60;78.30;;;;;;5003368;28;20405;-84
2021/11/24 05:40:16;;;;;;;8.40;7.53;;;9.60;78.30;;;;;;5021790;28;20499;-77
2021/11/24 05:42:51;;;;;;;10.20;8.52;;;9.60;78.30;;;;;;5033025;28;20061;-90
2021/11/24 05:48:08;;;;;;;10.15;8.13;;;9.60;78.30;;;;;;5020816;28;20042;-74
2021/11/24 05:50:34;;;;;;;8.35;7.47;;;9.60;78.30;;;;;;5017075;28;20432;-77
2021/11/24 05:53:01;;;;;;;9.75;7.32;;;9.60;78.30;;;;;;5024527;28;20465;-82
2021/11/24 05:55:27;;;;;;;9.93;8.43;;;9.60;78.30;;;;;;5022199;28;20057;-75
2021/11/24 05:57:53;;;;;;;8.75;7.22;;;9.60;78.30;;;;;;5018034;28;20030;-84
2021/11/24 06:00:19;;;;;;;8.13;7.07;;;9.60;78.30;;;;;;5019081;28;20022;-78
2021/11/24 06:02:45;;;;;;;9.77;8.20;;;9.60;78.40;;;;;;5022297;28;20538;-83
2021/11/24 06:05:12;;;;;;;8.82;7.75;;;9.60;78.40;;;;;;5009092;28;20034;-75
2021/11/24 06:07:39;;;;;;;8.68;7.07;;;9.60;78.40;;;;;;5009528;28;20128;-85
2021/11/24 06:10:08;;;;;;;8.43;7.53;;;9.60;78.40;;;;;;5009130;28;20026;-73
2021/11/24 06:12:34;;;;;;;8.10;7.25;;;9.60;78.40;;;;;;5008407;28;20046;-81
2021/11/24 06:15:00;;;;;;;7.68;6.88;;;9.60;78.40;;;;;;5008288;28;20022;-85
2021/11/24 06:17:26;;;;;;;8.65;7.20;;;9.60;78.40;;;;;;5016100;28;20041;-74
2021/11/24 06:19:53;;;;;;;7.97;7.13;;;9.60;78.40;;;;;;5006267;28;20152;-73
2021/11/24 06:22:19;;;;;;;9.15;7.60;;;9.60;78.40;;;;;;5005966;28;20251;-89
2021/11/24 06:24:45;;;;;;;9.57;7.97;;;9.60;78.40;;;;;;5007331;28;20030;-89
2021/11/24 06:27:11;;;;;;;8.80;7.38;;;9.60;78.40;;;;;;5007300;28;20382;-74
2021/11/24 06:29:37;;;;;;;8.73;7.47;;;9.60;78.40;;;;;;5018023;28;20371;-76
2021/11/24 06:32:03;;;;;;;7.25;6.45;;;9.60;78.40;;;;;;5006594;28;20045;-74
2021/11/24 06:34:29;;;;;;;8.65;7.47;;;9.60;78.40;;;;;;5000478;28;20053;-75
2021/11/24 06:36:56;;;;;;;8.07;6.82;;;9.60;78.40;;;;;;5021773;28;20410;-76
2021/11/24 06:39:23;;;;;;;8.18;7.00;;;9.60;78.40;;;;;;5008422;28;20141;-75
2021/11/24 06:41:49;;;;;;;8.40;6.75;;;9.60;78.40;;;;;;5009266;28;20036;-75
2021/11/24 06:44:15;;;;;;;7.53;6.82;;;9.60;78.40;;;;;;5011901;28;20040;-85
2021/11/24 06:46:41;;;;;;;7.53;6.75;;;9.60;78.50;;;;;;5009549;28;20508;-73
2021/11/24 06:49:08;;;;;;;8.65;7.28;;;9.60;78.50;;;;;;5010905;28;20029;-76
2021/11/24 06:51:34;;;;;;;8.32;6.80;;;9.60;78.50;;;;;;5011312;28;20042;-74
2021/11/24 06:54:00;;;;;;;8.60;7.50;;;9.60;78.50;;;;;;5010785;28;20088;-77
2021/11/24 06:56:26;;;;;;;9.57;6.90;;;9.60;78.50;;;;;;5011774;28;20121;-74
2021/11/24 06:58:52;;;;;;;8.40;7.10;;;9.60;78.50;;;;;;5009495;28;20109;-74
2021/11/24 07:01:18;;;;;;;8.00;7.18;;;9.60;78.50;;;;;;5011563;28;20033;-83
2021/11/24 07:03:44;;;;;;;8.15;7.32;;;9.60;78.50;;;;;;5011716;28;20525;-75
2021/11/24 07:06:10;;;;;;;8.00;7.07;;;9.60;78.50;;;;;;5001238;28;20037;-78
2021/11/24 07:08:36;;;;;;;9.13;7.03;;;9.60;78.50;;;;;;5012131;28;20080;-82
2021/11/24 07:11:02;;;;;;;8.70;7.03;;;9.60;78.50;;;;;;5029593;28;20040;-73
2021/11/24 07:13:28;;;;;;;7.38;6.68;;;9.60;78.50;;;;;;5030769;28;20384;-73
2021/11/24 07:15:54;;;;;;;7.00;6.18;;;9.60;78.50;;;;;;5026278;28;20041;-73
2021/11/24 07:18:20;;;;;;;7.57;6.60;;;9.60;78.50;;;;;;5017343;28;20088;-74
2021/11/24 07:20:46;;;;;;;7.93;7.13;;;9.60;78.50;;;;;;5012071;28;20052;-81
2021/11/24 07:23:12;;;;;;;6.78;6.13;;;9.60;78.40;;;;;;5021287;28;20120;-75
2021/11/24 07:25:38;;;;;;;7.38;6.57;;;9.60;78.40;;;;;;5011288;28;20177;-76
2021/11/24 07:28:04;;;;;;;6.78;6.10;;;9.60;78.40;;;;;;5014465;28;20041;-74
2021/11/24 07:30:31;;;;;;;8.45;7.30;;;9.60;78.40;;;;;;5011062;28;20084;-75
2021/11/24 07:32:57;;;;;;;7.97;7.13;;;9.60;78.40;;;;;;5017209;28;20030;-84
2021/11/24 07:35:23;;;;;;;7.38;6.18;;;9.60;78.40;;;;;;4996587;28;20094;-74
2021/11/24 07:37:49;;;;;;;7.95;6.78;;;9.50;78.20;;;;;;5018589;28;20053;-83
2021/11/24 07:40:16;;;;;;;7.15;6.45;;;9.50;78.20;;;;;;5027540;28;20070;-77
2021/11/24 07:42:43;;;;;;;8.25;7.38;;;9.50;78.20;;;;;;5023481;28;20398;-74
2021/11/24 07:45:09;;;;;;;7.53;6.82;;;9.50;78.30;;;;;;5015384;28;20056;-77
2021/11/24 07:47:36;;;;;;;7.13;6.10;;;9.60;78.40;;;;;;5007806;28;20489;-81
2021/11/24 07:50:02;;;;;;;7.97;6.95;;;9.50;78.20;;;;;;5009700;28;20033;-79
2021/11/24 07:52:28;;;;;;;7.07;6.38;;;9.60;78.40;;;;;;5009723;28;20068;-75
2021/11/24 07:54:54;;;;;;;7.88;7.07;;;9.60;78.40;;;;;;5010461;28;20328;-77
2021/11/24 07:57:20;;;;;;;7.40;6.70;;;9.60;78.40;;;;;;5009421;28;20060;-76
2021/11/24 07:59:47;;;;;;;8.00;6.85;;;9.60;78.40;;;;;;5009550;28;20085;-74
2021/11/24 08:02:14;;;;;;;6.95;6.25;;;9.60;78.40;;;;;;5010149;28;20332;-83
2021/11/24 08:04:40;;;;;;;7.00;6.30;;;9.60;78.40;;;;;;5010794;28;20073;-92
2021/11/24 08:07:06;;;;;;;7.57;6.75;;;9.60;78.30;;;;;;5009613;28;20030;-79
2021/11/24 08:09:32;;;;;;;6.60;6.00;;;9.60;78.30;;;;;;5009604;28;20032;-72
2021/11/24 08:11:59;;;;;;;7.18;6.47;;;9.60;78.30;;;;;;5007655;28;20045;-81
2021/11/24 08:14:26;;;;;;;7.22;6.53;;;9.60;78.30;;;;;;5025004;28;20034;-75
2021/11/24 08:16:52;;;;;;;6.68;6.00;;;9.60;78.30;;;;;;5009704;28;20041;-76
2021/11/24 08:19:18;;;;;;;6.65;6.05;;;9.60;78.30;;;;;;5028475;28;20025;-85
2021/11/24 08:21:44;;;;;;;6.43;5.82;;;9.60;78.30;;;;;;5050015;28;20041;-74
2021/11/24 08:24:11;;;;;;;7.47;6.78;;;9.60;78.30;;;;;;5012566;28;20124;-75
2021/11/24 08:26:40;;;;;;;7.25;6.38;;;9.60;78.20;;;;;;5008902;28;20030;-74
2021/11/24 08:29:07;;;;;;;7.05;6.28;;;9.60;78.20;;;;;;5009205;28;20433;-74
2021/11/24 08:31:39;;;;;;;7.32;6.65;;;9.60;78.20;;;;;;5009451;28;20046;-78
2021/11/24 08:34:07;;;;;;;8.32;7.28;;;9.60;78.70;;;;;;5008452;28;20429;-75
2021/11/24 08:36:33;;;;;;;7.00;6.40;;;9.60;78.20;;;;;;5009471;28;20478;-82
2021/11/24 08:38:59;;;;;;;7.13;6.43;;;9.60;78.10;;;;;;5008299;28;20038;-76
2021/11/24 08:41:25;;;;;;;7.18;6.45;;;9.60;78.10;;;;;;5009760;28;20358;-79
2021/11/24 08:43:51;;;;;;;7.13;6.43;;;9.60;78.10;;;;;;5022864;28;20400;-75
2021/11/24 08:46:17;;;;;;;7.22;6.53;;;9.60;78.10;;;;;;5028599;28;20029;-76
2021/11/24 08:48:44;;;;;;;6.60;5.97;;;9.60;78.10;;;;;;5028377;28;20041;-75
2021/11/24 08:51:10;;;;;;;8.05;7.28;;;9.70;78.30;;;;;;5027698;28;20133;-74
2021/11/24 08:53:36;;;;;;;6.68;6.00;;;9.70;78.20;;;;;;5027413;28;20396;-79
2021/11/24 08:56:02;;;;;;;6.95;6.25;;;9.70;78.20;;;;;;5028575;28;20921;-74
2021/11/24 08:58:28;;;;;;;7.78;6.97;;;9.70;78.20;;;;;;5026883;28;20067;-74
2021/11/24 09:00:54;;;;;;;7.63;6.93;;;9.70;78.10;;;;;;5028425;28;20049;-74
2021/11/24 09:03:21;;;;;;;7.20;6.53;;;9.70;78.10;;;;;;5027082;28;20491;-74
2021/11/24 09:05:48;;;;;;;7.10;6.50;;;9.70;78.10;;;;;;5033173;28;20499;-74
2021/11/24 09:08:14;;;;;;;6.95;6.25;;;9.70;78.00;;;;;;5036642;28;20037;-76
2021/11/24 09:10:41;;;;;;;6.85;6.10;;;9.70;78.00;;;;;;5007337;28;20104;-74
2021/11/24 09:13:07;;;;;;;6.82;6.13;;;9.70;78.00;;;;;;5007307;28;20022;-74
2021/11/24 09:15:34;;;;;;;6.95;6.35;;;9.80;78.10;;;;;;5008270;28;20101;-78
2021/11/24 09:18:00;;;;;;;6.35;5.70;;;9.80;78.10;;;;;;5008050;28;20113;-75
2021/11/24 09:20:26;;;;;;;6.85;6.15;;;9.80;78.00;;;;;;5015938;28;20137;-73
2021/11/24 09:22:54;;;;;;;7.15;6.55;;;9.80;78.00;;;;;;5011478;28;20537;-74
2021/11/24 09:25:24;;;;;;;6.53;5.93;;;9.80;78.00;;;;;;5008956;28;20034;-76
2021/11/24 09:30:19;;;;;;;6.70;6.10;;;9.80;77.90;;;;;;5007054;28;20822;-76
2021/11/24 09:32:45;;;;;;;6.65;6.05;;;9.80;77.90;;;;;;5006775;28;20025;-78
2021/11/24 09:35:12;;;;;;;6.85;6.10;;;9.90;78.00;;;;;;5008364;28;20014;-74
2021/11/24 09:37:38;;;;;;;6.60;5.80;;;9.90;78.00;;;;;;5012324;28;20031;-75
2021/11/24 09:40:06;;;;;;;6.60;5.90;;;9.90;78.00;;;;;;5007671;28;20034;-77
2021/11/24 09:42:36;;;;;;;6.43;5.82;;;9.90;77.90;;;;;;5012523;28;20041;-74
2021/11/24 09:45:03;;;;;;;6.93;6.22;;;9.90;77.90;;;;;;5005930;28;20057;-86
2021/11/24 09:47:31;;;;;;;6.90;6.20;;;9.90;77.90;;;;;;5006577;28;20049;-75
2021/11/24 09:49:59;;;;;;;6.18;5.60;;;9.90;77.90;;;;;;5007099;28;20034;-74
2021/11/24 09:52:26;;;;;;;6.45;5.95;;;10.00;78.00;;;;;;5007334;28;20044;-83
2021/11/24 09:54:54;;;;;;;6.80;6.20;;;10.00;78.00;;;;;;5006838;28;20429;-76
2021/11/24 09:57:25;;;;;;;7.40;6.80;;;10.00;78.00;;;;;;5005860;28;20034;-76
2021/11/24 09:59:51;;;;;;;6.45;5.65;;;10.00;78.00;;;;;;5005282;28;20061;-75
2021/11/24 10:02:19;;;;;;;7.28;6.45;;;10.00;77.90;;;;;;5015778;28;20453;-74
2021/11/24 10:04:46;;;;;;;6.90;6.25;;;10.10;78.10;;;;;;5007335;28;20184;-74
2021/11/24 10:07:13;;;;;;;7.03;6.32;;;10.10;78.00;;;;;;5006528;28;20049;-74
2021/11/24 10:09:40;;;;;;;6.60;6.00;;;10.20;78.20;;;;;;5006974;28;20488;-74
2021/11/24 10:12:07;;;;;;;8.27;7.00;;;10.20;78.20;;;;;;5006482;28;20113;-80
2021/11/24 10:14:35;;;;;;;6.97;6.35;;;10.20;78.10;;;;;;5006139;28;20029;-74
2021/11/24 10:17:13;;;;;;;7.22;6.63;;;10.30;78.20;;;;;;4988850;28;20072;-76
2021/11/24 10:19:56;;;;;;;7.40;6.80;;;10.30;78.20;;;;;;5006478;28;20038;-74
2021/11/24 10:22:22;;;;;;;7.07;6.38;;;10.40;78.30;;;;;;5005352;28;20259;-75
2021/11/24 10:24:59;;;;;;;6.65;5.95;;;10.40;78.20;;;;;;5006489;28;20129;-77
2021/11/24 10:27:37;;;;;;;7.18;6.30;;;10.50;78.20;;;;;;5006406;28;20167;-79
2021/11/24 10:30:04;;;;;;;7.25;6.65;;;10.50;78.10;;;;;;5006384;28;20477;-75
2021/11/24 10:32:30;;;;;;;7.82;7.03;;;10.60;78.20;;;;;;5008738;28;20045;-73
2021/11/24 10:34:57;;;;;;;6.85;6.25;;;10.60;78.20;;;;;;5026628;28;20033;-76
2021/11/24 10:37:24;;;;;;;7.22;6.53;;;10.70;78.30;;;;;;5026267;28;20500;-77
2021/11/24 10:40:00;;;;;;;8.13;7.03;;;10.70;78.20;;;;;;5020134;28;20034;-83
2021/11/24 10:42:37;;;;;;;7.63;6.82;;;10.80;78.20;;;;;;5014123;28;20117;-84
2021/11/24 10:45:06;;;;;;;7.15;6.45;;;10.80;78.10;;;;;;5006120;28;20033;-82
2021/11/24 10:47:33;;;;;;;7.00;6.30;;;10.90;78.20;;;;;;5007164;28;20054;-81
2021/11/24 10:50:05;;;;;;;7.40;6.70;;;10.80;77.90;;;;;;5005611;28;20048;-78
2021/11/24 10:52:45;;;;;;;8.00;7.07;;;10.90;78.00;;;;;;5004849;28;20385;-80
2021/11/24 10:55:18;;;;;;;7.10;6.40;;;11.00;78.00;;;;;;5020245;28;20480;-81
2021/11/24 10:58:16;;;;;;;8.20;7.10;;;11.00;78.00;;;;;;5043367;28;20049;-80
2021/11/24 11:00:50;;;;;;;7.95;7.25;;;11.00;77.90;;;;;;5004521;28;20498;-81
2021/11/24 11:03:17;;;;;;;7.65;6.95;;;11.00;77.80;;;;;;5005956;28;20072;-77
2021/11/24 11:05:45;;;;;;;7.00;6.38;;;11.00;77.70;;;;;;5006429;28;20061;-82
2021/11/24 11:08:17;;;;;;;7.70;6.60;;;11.10;77.90;;;;;;5005424;28;20497;-78
2021/11/24 11:10:46;;;;;;;8.40;7.30;;;11.10;77.80;;;;;;5005411;28;20064;-77
2021/11/24 11:13:18;;;;;;;8.10;6.70;;;11.20;78.00;;;;;;5005972;28;20539;-81
2021/11/24 11:15:53;;;;;;;7.88;6.95;;;11.10;77.70;;;;;;5005596;28;20105;-84
2021/11/24 11:18:27;;;;;;;8.63;7.82;;;11.20;77.80;;;;;;5011564;28;20043;-85
2021/11/24 11:21:07;;;;;;;7.55;6.85;;;11.30;77.90;;;;;;5006553;28;20104;-74
2021/11/24 11:23:45;;;;;;;8.30;7.50;;;11.40;78.00;;;;;;5005467;28;20038;-77
2021/11/24 11:26:15;;;;;;;7.68;6.82;;;11.40;77.80;;;;;;5004909;28;20128;-78
2021/11/24 11:28:48;;;;;;;8.18;7.18;;;11.50;77.90;;;;;;5008895;28;20029;-75
2021/11/24 11:31:17;;;;;;;8.10;7.32;;;11.60;77.90;;;;;;5009114;28;20128;-76
2021/11/24 11:33:47;;;;;;;9.13;8.25;;;11.60;77.70;;;;;;5009759;28;20437;-81
2021/11/24 11:36:13;;;;;;;8.88;7.72;;;11.60;77.60;;;;;;5008155;28;20052;-76
2021/11/24 11:38:42;;;;;;;8.90;8.00;;;11.70;77.70;;;;;;5010501;28;20030;-87
2021/11/24 11:41:08;;;;;;;9.35;8.45;;;11.70;77.60;;;;;;5009787;28;20100;-82
2021/11/24 11:43:35;;;;;;;9.68;8.30;;;11.80;77.70;;;;;;5009778;28;20048;-86
2021/11/24 11:46:26;;;;;;;9.52;8.55;;;11.80;77.60;;;;;;5009656;28;20026;-81
2021/11/24 11:48:53;;;;;;;8.40;7.50;;;11.90;77.60;;;;;;5018832;28;20095;-89
2021/11/24 11:51:35;;;;;;;9.45;8.43;;;11.90;77.50;;;;;;5011904;28;20041;-78
2021/11/24 11:54:02;;;;;;;10.50;7.55;;;11.90;77.40;;;;;;5027786;28;20805;-75
2021/11/24 11:56:43;;;;;;;9.80;8.82;;;12.00;77.50;;;;;;5027142;28;20036;-77
2021/11/24 11:59:17;;;;;;;11.45;8.52;;;12.00;77.70;;;;;;5020674;28;20498;-80
2021/11/24 12:01:43;;;;;;;10.40;7.95;;;12.10;77.90;;;;;;5030086;28;20503;-82
2021/11/24 12:04:20;;;;;;;9.38;8.32;;;12.20;78.00;;;;;;5012581;28;20183;-80
2021/11/24 12:06:53;;;;;;;10.25;9.25;;;12.20;77.90;;;;;;5029452;28;20175;-76
2021/11/24 12:09:26;;;;;;;10.93;8.05;;;12.20;77.70;;;;;;5015065;28;20125;-77
2021/11/24 12:12:05;;;;;;;9.05;8.15;;;12.30;77.70;;;;;;5008911;28;20048;-76
2021/11/24 12:14:54;;;;;;;9.68;8.57;;;12.30;77.60;;;;;;5006806;28;20104;-87
2021/11/24 12:17:30;;;;;;;9.68;8.63;;;12.30;77.50;;;;;;5015780;28;20041;-80
2021/11/24 12:20:00;;;;;;;10.10;8.73;;;12.30;77.40;;;;;;5029078;28;20038;-83
2021/11/24 12:22:52;;;;;;;10.50;8.90;;;12.30;77.40;;;;;;5028771;28;20128;-86
2021/11/24 12:25:18;;;;;;;9.30;8.30;;;12.40;77.50;;;;;;5007804;28;20497;-76
2021/11/24 12:33:14;;;;;;;10.65;9.55;;;12.60;77.30;;;;;;5021039;28;20379;-79
2021/11/24 12:35:51;;;;;;;9.13;7.80;;;12.60;77.20;;;;;;5009202;28;20030;-79
2021/11/24 12:38:19;;;;;;;11.55;8.30;;;12.60;77.30;;;;;;5006983;28;20117;-79
2021/11/24 12:40:47;;;;;;;12.05;8.95;;;12.60;77.50;;;;;;5009714;28;20220;-83
2021/11/24 12:43:16;;;;;;;12.80;9.52;;;12.60;77.70;;;;;;4991672;28;20022;-79
2021/11/24 12:46:05;;;;;;;10.55;8.52;;;12.60;77.80;;;;;;5007877;28;20029;-77
2021/11/24 12:48:34;;;;;;;13.52;9.82;;;12.60;77.80;;;;;;5008232;28;20038;-79
2021/11/24 12:51:01;;;;;;;11.68;10.35;;;12.60;77.80;;;;;;5006931;28;20042;-80
2021/11/24 12:53:27;;;;;;;12.02;10.18;;;12.70;78.00;;;;;;5008292;28;20404;-81
2021/11/24 12:56:20;;;;;;;11.40;9.93;;;12.70;77.90;;;;;;5008674;28;20026;-82
2021/11/24 12:58:46;;;;;;;19.55;10.88;;;12.70;77.80;;;;;;5004502;28;20034;-83
2021/11/24 13:01:31;;;;;;;11.68;9.20;;;12.80;77.90;;;;;;5007591;28;20125;-80
2021/11/24 13:04:00;;;;;;;12.20;9.20;;;12.80;77.70;;;;;;5008141;28;20037;-86
2021/11/24 13:06:27;;;;;;;11.55;9.15;;;12.80;77.60;;;;;;5009783;28;20037;-86